Time;durP1;ratioP1;P1;durP2;ratioP2;P2;SDS_P1;SDS_P2;PMS_P1;PMS_P2;Temp;Humidity;BMP_temperature;BMP_pressure;BME280_temperature;BME280_humidity;BME280_pressure;Samples;Min_cycle;Max_cycle;Signal;HPM_P1;HPM_P2
2024/02/03 00:00:46;;;;;;;28.10;16.92;;;9.50;99.90;;;;;;5013343;28;20060;-76
2024/02/03 00:03:11;;;;;;;26.80;17.35;;;9.60;99.90;;;;;;5009882;28;20045;-74
2024/02/03 00:05:37;;;;;;;28.15;16.33;;;9.60;99.90;;;;;;5030815;28;20320;-74
2024/02/03 00:08:03;;;;;;;21.95;15.88;;;9.60;99.90;;;;;;5013628;28;20077;-74
2024/02/03 00:10:29;;;;;;;23.38;15.40;;;9.60;99.90;;;;;;5028418;28;20051;-74
2024/02/03 00:12:55;;;;;;;23.55;14.95;;;9.60;99.90;;;;;;5030785;28;20402;-74
2024/02/03 00:15:21;;;;;;;28.55;15.75;;;9.60;99.90;;;;;;5028349;28;20398;-73
2024/02/03 00:17:47;;;;;;;25.63;14.65;;;9.70;99.90;;;;;;5015196;28;20040;-75
2024/02/03 00:20:14;;;;;;;22.08;14.23;;;9.60;99.90;;;;;;5029733;28;20033;-74
2024/02/03 00:22:45;;;;;;;22.02;14.68;;;9.60;99.90;;;;;;5012315;28;20151;-73
2024/02/03 00:25:11;;;;;;;19.52;14.25;;;9.70;99.90;;;;;;5029699;28;20091;-74
2024/02/03 00:27:38;;;;;;;23.38;14.60;;;9.70;99.90;;;;;;5028518;28;20097;-74
2024/02/03 00:30:05;;;;;;;22.25;13.98;;;9.70;99.90;;;;;;5030712;28;20041;-74
2024/02/03 00:32:31;;;;;;;20.30;13.48;;;9.70;99.90;;;;;;5011876;28;20440;-74
2024/02/03 00:34:57;;;;;;;21.42;14.20;;;9.70;99.90;;;;;;5014813;28;20128;-81
2024/02/03 00:37:23;;;;;;;23.40;14.07;;;9.60;99.90;;;;;;5019299;28;20049;-82
2024/02/03 00:39:49;;;;;;;22.42;13.38;;;9.70;99.90;;;;;;5014759;28;20107;-82
2024/02/03 00:42:15;;;;;;;20.25;13.07;;;9.70;99.90;;;;;;5025666;28;20049;-81
2024/02/03 00:44:41;;;;;;;20.55;13.82;;;9.70;99.90;;;;;;5034298;28;20041;-81
2024/02/03 00:47:07;;;;;;;22.50;12.88;;;9.70;99.90;;;;;;5012799;28;20538;-81
2024/02/03 00:49:33;;;;;;;22.55;13.13;;;9.70;99.90;;;;;;5028989;28;20144;-82
2024/02/03 00:52:02;;;;;;;21.33;12.38;;;9.70;99.90;;;;;;5014343;28;20119;-82
2024/02/03 00:54:28;;;;;;;22.05;12.95;;;9.70;99.90;;;;;;5021250;28;20048;-82
2024/02/03 00:56:54;;;;;;;23.13;12.93;;;9.70;99.90;;;;;;5029345;28;20512;-81
2024/02/03 00:59:20;;;;;;;20.80;12.27;;;9.70;99.90;;;;;;5030692;28;20053;-82
2024/02/03 01:01:46;;;;;;;19.00;11.98;;;9.60;99.90;;;;;;5025271;28;20129;-81
2024/02/03 01:04:11;;;;;;;17.55;11.25;;;9.60;99.90;;;;;;5010946;28;20497;-81
2024/02/03 01:06:37;;;;;;;17.27;10.27;;;9.60;99.90;;;;;;5026540;28;20064;-82
2024/02/03 01:09:03;;;;;;;21.40;11.15;;;9.70;99.90;;;;;;5029334;28;20051;-81
2024/02/03 01:11:29;;;;;;;17.20;10.15;;;9.60;99.90;;;;;;5011053;28;20049;-74
2024/02/03 01:13:55;;;;;;;21.67;10.27;;;9.70;99.90;;;;;;5017517;28;20047;-74
2024/02/03 01:16:23;;;;;;;17.08;9.90;;;9.70;99.90;;;;;;5010782;28;20049;-83
2024/02/03 01:18:50;;;;;;;16.08;9.27;;;9.70;99.90;;;;;;5013207;28;20099;-83
2024/02/03 01:21:20;;;;;;;15.88;8.88;;;9.70;99.90;;;;;;5022811;28;20049;-83
2024/02/03 01:23:47;;;;;;;15.48;8.77;;;9.80;99.90;;;;;;5027752;28;20041;-84
2024/02/03 01:26:13;;;;;;;17.80;8.52;;;9.80;99.90;;;;;;5012373;28;20053;-83
2024/02/03 01:28:39;;;;;;;18.60;8.95;;;9.70;99.90;;;;;;5012571;28;20129;-82
2024/02/03 01:31:05;;;;;;;14.57;8.05;;;9.80;99.90;;;;;;5006702;28;20453;-83
2024/02/03 01:33:31;;;;;;;14.70;8.70;;;9.80;99.90;;;;;;5028854;28;20599;-83
2024/02/03 01:35:57;;;;;;;14.35;8.70;;;9.80;99.90;;;;;;5011812;28;20347;-84
2024/02/03 01:38:24;;;;;;;14.50;8.10;;;9.80;99.90;;;;;;5012562;28;20048;-84
2024/02/03 01:40:50;;;;;;;17.20;8.73;;;9.80;99.90;;;;;;5011922;28;20041;-83
2024/02/03 01:43:15;;;;;;;17.92;8.00;;;9.80;99.90;;;;;;5028566;28;20376;-75
2024/02/03 01:45:41;;;;;;;13.48;7.93;;;9.80;99.90;;;;;;5027182;28;20045;-75
2024/02/03 01:48:08;;;;;;;12.98;7.35;;;9.80;99.90;;;;;;5019077;28;20495;-75
2024/02/03 01:50:35;;;;;;;14.45;7.03;;;9.80;99.90;;;;;;5027052;28;20041;-75
2024/02/03 01:53:02;;;;;;;18.63;7.20;;;9.90;99.90;;;;;;5025546;28;20123;-75
2024/02/03 01:55:29;;;;;;;12.95;7.07;;;9.90;99.90;;;;;;5006488;28;20052;-75
2024/02/03 01:58:00;;;;;;;14.80;7.47;;;9.90;99.90;;;;;;5011586;28;20513;-74
2024/02/03 02:00:26;;;;;;;12.93;6.68;;;9.90;99.90;;;;;;5026585;28;20103;-74
2024/02/03 02:02:52;;;;;;;11.35;6.22;;;9.90;99.90;;;;;;5008101;28;20124;-74
2024/02/03 02:05:18;;;;;;;13.23;7.10;;;9.90;99.90;;;;;;5026306;28;20129;-74
2024/02/03 02:07:44;;;;;;;11.50;7.50;;;10.00;99.90;;;;;;5011817;28;20553;-74
2024/02/03 02:10:13;;;;;;;12.27;6.97;;;10.00;99.90;;;;;;5008980;28;20044;-74
2024/02/03 02:12:39;;;;;;;12.32;7.50;;;9.90;99.90;;;;;;5017592;28;20049;-74
2024/02/03 02:15:05;;;;;;;16.98;7.35;;;10.00;99.90;;;;;;5012160;28;20095;-73
2024/02/03 02:17:32;;;;;;;13.00;7.50;;;9.90;99.90;;;;;;5027091;28;20410;-74
2024/02/03 02:20:06;;;;;;;15.40;7.57;;;9.90;99.90;;;;;;5011552;28;20049;-74
2024/02/03 02:22:33;;;;;;;15.25;7.32;;;9.90;99.90;;;;;;5026312;28;20045;-74
2024/02/03 02:24:59;;;;;;;15.85;7.78;;;9.90;99.90;;;;;;5010624;28;20199;-74
2024/02/03 02:27:24;;;;;;;12.73;7.57;;;9.90;99.90;;;;;;5013324;28;20465;-74
2024/02/03 02:29:53;;;;;;;14.68;7.65;;;9.90;99.90;;;;;;5012540;28;20049;-74
2024/02/03 02:32:19;;;;;;;14.30;7.70;;;9.90;99.90;;;;;;5027133;28;20048;-74
2024/02/03 02:34:45;;;;;;;15.75;7.80;;;9.80;99.90;;;;;;5018824;28;20033;-74
2024/02/03 02:37:14;;;;;;;18.38;7.68;;;9.80;99.90;;;;;;5028650;28;20402;-74
2024/02/03 02:39:40;;;;;;;13.90;7.45;;;9.80;99.90;;;;;;5026624;28;20075;-74
2024/02/03 02:42:09;;;;;;;13.40;7.97;;;9.80;99.90;;;;;;5012635;28;20040;-75
2024/02/03 02:44:35;;;;;;;18.83;7.93;;;9.80;99.90;;;;;;5012469;28;20052;-74
2024/02/03 02:47:01;;;;;;;12.98;7.38;;;9.80;99.90;;;;;;5009837;28;20275;-74
2024/02/03 02:49:26;;;;;;;16.25;7.55;;;9.80;99.90;;;;;;5027774;28;20182;-74
2024/02/03 02:51:52;;;;;;;13.10;7.32;;;9.80;99.90;;;;;;5028028;28;20160;-84
2024/02/03 02:54:18;;;;;;;12.95;7.50;;;9.80;99.90;;;;;;5020115;28;20037;-82
2024/02/03 02:56:44;;;;;;;19.77;8.40;;;9.80;99.90;;;;;;5027894;28;20053;-82
2024/02/03 02:59:10;;;;;;;14.15;7.93;;;9.80;99.90;;;;;;5010110;28;20045;-74
2024/02/03 03:01:37;;;;;;;11.93;6.93;;;9.80;99.90;;;;;;5011778;28;20593;-74
2024/02/03 03:04:02;;;;;;;17.25;7.35;;;9.80;99.90;;;;;;5027065;28;20095;-74
2024/02/03 03:06:28;;;;;;;17.00;6.80;;;9.80;99.90;;;;;;5027904;28;20091;-74
2024/02/03 03:08:54;;;;;;;13.65;7.05;;;9.80;99.90;;;;;;5028341;28;20147;-74
2024/02/03 03:11:20;;;;;;;17.20;7.22;;;9.80;99.90;;;;;;5031437;28;20451;-74
2024/02/03 03:13:46;;;;;;;13.05;7.18;;;9.80;99.90;;;;;;5008775;28;20048;-74
2024/02/03 03:16:12;;;;;;;14.10;6.65;;;9.80;99.90;;;;;;5013348;28;20044;-74
2024/02/03 03:18:38;;;;;;;16.02;7.32;;;9.80;99.90;;;;;;5031418;28;20064;-74
2024/02/03 03:21:04;;;;;;;14.32;7.20;;;9.80;99.90;;;;;;5030125;28;20037;-74
2024/02/03 03:23:30;;;;;;;12.57;6.60;;;9.90;99.90;;;;;;5021427;28;20052;-74
2024/02/03 03:25:56;;;;;;;16.08;6.45;;;9.80;99.90;;;;;;5023555;28;20045;-74
2024/02/03 03:28:22;;;;;;;14.43;7.10;;;9.80;99.90;;;;;;5015105;28;20152;-74
2024/02/03 03:30:48;;;;;;;14.60;6.50;;;9.80;99.90;;;;;;5030214;28;20127;-74
2024/02/03 03:33:14;;;;;;;13.30;6.55;;;9.80;99.90;;;;;;5014183;28;20490;-74
2024/02/03 03:35:43;;;;;;;17.52;7.40;;;9.80;99.90;;;;;;5019589;28;20060;-75
2024/02/03 03:38:10;;;;;;;12.85;6.13;;;9.90;99.90;;;;;;5031358;28;20040;-74
2024/02/03 03:40:37;;;;;;;14.25;6.82;;;9.90;99.90;;;;;;5008633;28;20127;-74
2024/02/03 03:43:06;;;;;;;12.95;6.78;;;9.80;99.90;;;;;;5028829;28;20788;-75
2024/02/03 03:45:32;;;;;;;13.18;6.65;;;9.90;99.90;;;;;;5029647;28;20349;-74
2024/02/03 03:47:58;;;;;;;12.05;6.68;;;9.90;99.90;;;;;;5013631;28;20049;-82
2024/02/03 03:50:24;;;;;;;10.68;6.18;;;9.90;99.90;;;;;;5031831;28;20116;-82
2024/02/03 03:52:50;;;;;;;13.52;6.40;;;9.90;99.90;;;;;;5027388;28;20475;-82
2024/02/03 03:55:16;;;;;;;13.88;6.10;;;10.00;99.90;;;;;;5014965;28;20037;-81
2024/02/03 03:57:42;;;;;;;10.27;5.70;;;10.00;99.90;;;;;;5012355;28;20538;-74
2024/02/03 04:00:12;;;;;;;11.38;6.63;;;10.00;99.90;;;;;;5031389;28;20087;-74
2024/02/03 04:02:39;;;;;;;13.40;7.07;;;10.00;99.90;;;;;;5008706;28;20049;-74
2024/02/03 04:05:06;;;;;;;10.98;6.25;;;10.00;99.90;;;;;;5031516;28;20045;-74
2024/02/03 04:07:32;;;;;;;12.80;6.40;;;10.00;99.90;;;;;;5026830;28;20526;-74
2024/02/03 04:09:58;;;;;;;15.18;6.30;;;10.00;99.90;;;;;;5030148;28;20517;-74
2024/02/03 04:12:23;;;;;;;14.50;6.68;;;10.00;99.90;;;;;;5030242;28;20044;-74
2024/02/03 04:14:50;;;;;;;13.25;6.15;;;10.00;99.90;;;;;;5028711;28;20049;-74
2024/02/03 04:17:16;;;;;;;13.85;6.53;;;10.00;99.90;;;;;;5029333;28;20155;-74
2024/02/03 04:19:42;;;;;;;13.85;6.60;;;10.00;99.90;;;;;;5028700;28;20080;-74
2024/02/03 04:22:15;;;;;;;13.75;6.75;;;10.00;99.90;;;;;;5026805;28;20044;-74
2024/02/03 04:24:41;;;;;;;12.73;6.47;;;10.00;99.90;;;;;;5030081;28;20112;-74
2024/02/03 04:27:07;;;;;;;10.63;5.47;;;10.00;99.90;;;;;;5012675;28;20132;-74
2024/02/03 04:29:33;;;;;;;11.93;5.15;;;10.00;99.90;;;;;;5014765;28;20384;-74
2024/02/03 04:31:58;;;;;;;15.02;7.05;;;10.00;99.90;;;;;;5027653;28;20037;-74
2024/02/03 04:34:24;;;;;;;9.70;6.40;;;10.00;99.90;;;;;;5030125;28;20434;-75
2024/02/03 04:36:50;;;;;;;13.43;6.00;;;10.00;99.90;;;;;;5031417;28;20040;-83
2024/02/03 04:39:16;;;;;;;12.38;6.03;;;10.00;99.90;;;;;;5029670;28;20052;-83
2024/02/03 04:41:41;;;;;;;13.77;6.25;;;9.90;99.90;;;;;;5018872;28;20037;-83
2024/02/03 04:44:07;;;;;;;12.73;6.72;;;9.90;99.90;;;;;;5031072;28;20033;-84
2024/02/03 04:46:33;;;;;;;14.32;6.13;;;9.90;99.90;;;;;;5014676;28;20049;-84
2024/02/03 04:48:59;;;;;;;17.83;6.70;;;9.80;99.90;;;;;;5009222;28;20034;-83
2024/02/03 04:51:25;;;;;;;13.75;6.65;;;9.90;99.90;;;;;;5030528;28;20041;-84
2024/02/03 04:53:54;;;;;;;16.52;6.93;;;9.80;99.90;;;;;;5012751;28;20045;-83
2024/02/03 04:56:19;;;;;;;18.00;7.45;;;9.80;99.90;;;;;;5013664;28;20503;-84
2024/02/03 04:58:45;;;;;;;13.50;7.78;;;9.80;99.90;;;;;;5012878;28;20047;-83
2024/02/03 05:01:11;;;;;;;12.07;7.55;;;9.80;99.90;;;;;;5029885;28;20054;-83
2024/02/03 05:03:37;;;;;;;19.15;7.93;;;9.80;99.90;;;;;;5010953;28;20095;-83
2024/02/03 05:06:06;;;;;;;16.38;7.45;;;9.80;99.90;;;;;;5028411;28;20381;-83
2024/02/03 05:08:32;;;;;;;16.13;7.78;;;9.80;99.90;;;;;;5030618;28;20057;-84
2024/02/03 05:10:58;;;;;;;12.77;7.25;;;9.70;99.90;;;;;;5027553;28;20067;-84
2024/02/03 05:13:25;;;;;;;14.85;7.50;;;9.70;99.90;;;;;;5013850;28;20041;-83
2024/02/03 05:15:51;;;;;;;13.23;7.10;;;9.70;99.90;;;;;;5009373;28;20080;-83
2024/02/03 05:18:17;;;;;;;18.27;6.80;;;9.70;99.90;;;;;;5029656;28;20044;-83
2024/02/03 05:20:43;;;;;;;11.73;6.65;;;9.70;99.90;;;;;;5027940;28;20037;-83
2024/02/03 05:23:09;;;;;;;14.48;6.25;;;9.70;99.90;;;;;;5029834;28;20407;-83
2024/02/03 05:25:34;;;;;;;16.38;7.82;;;9.70;99.90;;;;;;5004585;28;20067;-83
2024/02/03 05:28:00;;;;;;;14.90;6.82;;;9.70;99.90;;;;;;5012469;28;20037;-83
2024/02/03 05:30:27;;;;;;;14.90;6.65;;;9.70;99.90;;;;;;5014008;28;20379;-83
2024/02/03 05:32:52;;;;;;;14.45;6.40;;;9.70;99.90;;;;;;5012590;28;20040;-83
2024/02/03 05:35:18;;;;;;;12.68;5.93;;;9.70;99.90;;;;;;5027772;28;20063;-83
2024/02/03 05:37:44;;;;;;;11.95;6.20;;;9.70;99.90;;;;;;5029882;28;20052;-83
2024/02/03 05:40:13;;;;;;;15.27;6.18;;;9.70;99.90;;;;;;5013110;28;20141;-83
2024/02/03 05:42:39;;;;;;;11.85;5.45;;;9.70;99.90;;;;;;5029647;28;20040;-83
2024/02/03 05:45:05;;;;;;;13.70;6.07;;;9.70;99.90;;;;;;5010063;28;20056;-83
2024/02/03 05:47:31;;;;;;;13.68;7.07;;;9.70;99.90;;;;;;5014113;28;20143;-75
2024/02/03 05:49:56;;;;;;;16.92;7.10;;;9.70;99.90;;;;;;5026944;28;20135;-75
2024/02/03 05:52:22;;;;;;;13.93;6.07;;;9.70;99.90;;;;;;5014369;28;20087;-75
2024/02/03 05:54:48;;;;;;;13.93;6.53;;;9.70;99.90;;;;;;5029422;28;20048;-74
2024/02/03 05:57:14;;;;;;;21.23;7.20;;;9.70;99.90;;;;;;5027111;28;20048;-75
2024/02/03 05:59:46;;;;;;;13.98;6.68;;;9.80;99.90;;;;;;5028616;28;20083;-75
2024/02/03 06:02:12;;;;;;;17.10;7.03;;;9.80;99.90;;;;;;5025860;28;20048;-75
2024/02/03 06:04:41;;;;;;;16.48;7.15;;;9.80;99.90;;;;;;5012588;28;20048;-75
2024/02/03 06:07:08;;;;;;;15.23;6.73;;;9.80;99.90;;;;;;5026245;28;20041;-74
2024/02/03 06:09:34;;;;;;;18.65;6.60;;;9.80;99.90;;;;;;5011587;28;20497;-75
2024/02/03 06:11:59;;;;;;;14.20;6.25;;;9.80;99.90;;;;;;5013437;28;20045;-74
2024/02/03 06:14:25;;;;;;;16.50;6.90;;;9.80;99.90;;;;;;5025946;28;20037;-74
2024/02/03 06:16:51;;;;;;;17.10;7.40;;;9.80;99.90;;;;;;5028471;28;20057;-74
2024/02/03 06:19:17;;;;;;;12.85;6.45;;;9.80;99.90;;;;;;5009780;28;20053;-82
2024/02/03 06:21:43;;;;;;;15.45;6.85;;;9.80;99.90;;;;;;5029188;28;20407;-83
2024/02/03 06:24:09;;;;;;;18.27;7.35;;;9.80;99.90;;;;;;5010565;28;20140;-83
2024/02/03 06:26:35;;;;;;;11.88;6.43;;;9.80;99.90;;;;;;5011334;28;20041;-82
2024/02/03 06:29:01;;;;;;;17.95;7.53;;;9.80;99.90;;;;;;5021998;28;20091;-83
2024/02/03 06:31:27;;;;;;;15.52;7.13;;;9.80;99.90;;;;;;5027651;28;20151;-84
2024/02/03 06:33:52;;;;;;;13.85;7.07;;;9.80;99.90;;;;;;5026702;28;20060;-84
2024/02/03 06:36:18;;;;;;;19.45;6.90;;;9.80;99.90;;;;;;5009532;28;20049;-82
2024/02/03 06:38:44;;;;;;;17.20;6.88;;;9.80;99.90;;;;;;5012425;28;20083;-82
2024/02/03 06:41:18;;;;;;;15.60;6.72;;;9.80;99.90;;;;;;5028318;28;20063;-83
2024/02/03 06:43:43;;;;;;;13.07;6.15;;;9.80;99.90;;;;;;5030596;28;20048;-84
2024/02/03 06:46:13;;;;;;;19.73;7.57;;;9.80;99.90;;;;;;5014848;28;20044;-83
2024/02/03 06:48:39;;;;;;;15.02;6.07;;;9.80;99.90;;;;;;5031452;28;20053;-83
2024/02/03 06:51:05;;;;;;;15.10;7.43;;;9.80;99.90;;;;;;5010027;28;20048;-83
2024/02/03 06:53:30;;;;;;;17.42;7.13;;;9.80;99.90;;;;;;5019225;28;20079;-83
2024/02/03 06:55:56;;;;;;;20.08;8.15;;;9.70;99.90;;;;;;5017094;28;20044;-84
2024/02/03 06:58:23;;;;;;;15.65;7.88;;;9.80;99.90;;;;;;5019641;28;20033;-83
2024/02/03 07:00:49;;;;;;;16.52;7.30;;;9.70;99.90;;;;;;5015113;28;20052;-84
2024/02/03 07:03:14;;;;;;;15.48;7.10;;;9.70;99.90;;;;;;5029624;28;20044;-84
2024/02/03 07:05:40;;;;;;;17.48;8.18;;;9.70;99.90;;;;;;5015295;28;20191;-84
2024/02/03 07:08:09;;;;;;;17.67;7.10;;;9.70;99.90;;;;;;5031919;28;20483;-83
2024/02/03 07:10:35;;;;;;;15.02;7.05;;;9.70;99.90;;;;;;5031708;28;20127;-82
2024/02/03 07:13:00;;;;;;;15.20;7.20;;;9.70;99.90;;;;;;5036763;28;20131;-83
2024/02/03 07:15:27;;;;;;;18.33;8.45;;;9.70;99.90;;;;;;5035068;28;20067;-84
2024/02/03 07:17:52;;;;;;;17.60;8.05;;;9.70;99.90;;;;;;5015108;28;20498;-83
2024/02/03 07:20:18;;;;;;;18.08;7.43;;;9.70;99.90;;;;;;5025718;28;20135;-82
2024/02/03 07:22:44;;;;;;;17.65;8.25;;;9.70;99.90;;;;;;5032574;28;20033;-83
2024/02/03 07:25:13;;;;;;;15.80;7.50;;;9.60;99.90;;;;;;5012301;28;20049;-82
2024/02/03 07:27:39;;;;;;;16.60;7.72;;;9.70;99.90;;;;;;5015475;28;20036;-83
2024/02/03 07:30:05;;;;;;;15.93;7.85;;;9.60;99.90;;;;;;5014362;28;20044;-82
2024/02/03 07:32:31;;;;;;;17.77;7.47;;;9.60;99.90;;;;;;5023523;28;20072;-82
2024/02/03 07:34:56;;;;;;;18.40;7.30;;;9.60;99.90;;;;;;5015402;28;20713;-83
2024/02/03 07:37:22;;;;;;;16.45;7.50;;;9.60;99.90;;;;;;5015487;28;20076;-75
2024/02/03 07:39:48;;;;;;;14.52;7.10;;;9.60;99.90;;;;;;5014149;28;20399;-75
2024/02/03 07:42:15;;;;;;;15.88;7.05;;;9.60;99.90;;;;;;5012551;28;20045;-75
2024/02/03 07:44:44;;;;;;;15.77;7.05;;;9.70;99.90;;;;;;5014096;28;20037;-74
2024/02/03 07:47:11;;;;;;;18.40;7.97;;;9.70;99.90;;;;;;5011013;28;20049;-74
2024/02/03 07:49:37;;;;;;;15.98;7.18;;;9.60;99.90;;;;;;5016014;28;20087;-74
2024/02/03 07:52:03;;;;;;;14.82;6.78;;;9.70;99.90;;;;;;5025794;28;20072;-74
2024/02/03 07:54:29;;;;;;;15.38;6.25;;;9.70;99.90;;;;;;5029375;28;20056;-74
2024/02/03 07:56:54;;;;;;;17.08;6.78;;;9.70;99.90;;;;;;5012092;28;20041;-74
2024/02/03 07:59:20;;;;;;;14.30;6.57;;;9.80;99.90;;;;;;5029067;28;20045;-74
2024/02/03 08:01:46;;;;;;;12.77;5.47;;;9.80;99.90;;;;;;5009849;28;20252;-74
2024/02/03 08:04:12;;;;;;;13.00;6.15;;;9.80;99.90;;;;;;5031284;28;20037;-74
2024/02/03 08:06:38;;;;;;;11.32;5.70;;;9.90;99.90;;;;;;5025614;28;20044;-82
2024/02/03 08:09:04;;;;;;;13.95;5.50;;;9.80;99.90;;;;;;5009818;28;20083;-81
2024/02/03 08:11:29;;;;;;;13.50;5.47;;;9.90;99.90;;;;;;5027708;28;20491;-82
2024/02/03 08:13:56;;;;;;;14.98;5.40;;;9.90;99.90;;;;;;5011835;28;20049;-83
2024/02/03 08:16:21;;;;;;;15.00;6.03;;;9.90;99.90;;;;;;5028314;28;20099;-82
2024/02/03 08:18:47;;;;;;;18.13;6.22;;;9.90;99.90;;;;;;5028434;28;20045;-82
2024/02/03 08:21:13;;;;;;;17.00;5.60;;;10.00;99.90;;;;;;5020656;28;20480;-82
2024/02/03 08:23:39;;;;;;;13.75;5.43;;;10.00;99.90;;;;;;5030599;28;20033;-82
2024/02/03 08:26:04;;;;;;;10.70;5.25;;;10.00;99.90;;;;;;5012710;28;20483;-74
2024/02/03 08:28:30;;;;;;;13.40;5.03;;;10.00;99.90;;;;;;5014304;28;20249;-74
2024/02/03 08:30:56;;;;;;;14.40;5.28;;;10.00;99.90;;;;;;5031583;28;20047;-74
2024/02/03 08:33:22;;;;;;;16.27;5.35;;;10.00;99.90;;;;;;5030100;28;20081;-74
2024/02/03 08:35:48;;;;;;;11.13;4.63;;;10.00;99.90;;;;;;5029343;28;20059;-74
2024/02/03 08:38:14;;;;;;;13.40;5.35;;;10.00;99.90;;;;;;5028831;28;20419;-73
2024/02/03 08:40:41;;;;;;;13.15;4.85;;;10.00;99.90;;;;;;5012638;28;20047;-73
2024/02/03 08:43:06;;;;;;;13.95;4.78;;;10.10;99.90;;;;;;5030862;28;20177;-74
2024/02/03 08:45:32;;;;;;;13.32;4.85;;;10.10;99.90;;;;;;5027630;28;20120;-74
2024/02/03 08:47:58;;;;;;;12.73;4.93;;;10.10;99.90;;;;;;5026993;28;20394;-74
2024/02/03 08:50:24;;;;;;;10.13;4.72;;;10.10;99.90;;;;;;5015843;28;20033;-74
2024/02/03 08:52:50;;;;;;;11.70;5.50;;;10.10;99.90;;;;;;5012187;28;20399;-74
2024/02/03 08:55:15;;;;;;;13.55;5.50;;;10.10;99.90;;;;;;5011110;28;20479;-74
2024/02/03 08:57:41;;;;;;;15.55;6.03;;;10.20;99.90;;;;;;5029017;28;20037;-74
2024/02/03 09:00:07;;;;;;;14.35;5.30;;;10.20;99.90;;;;;;5012556;28;20041;-72
2024/02/03 09:02:33;;;;;;;13.73;5.20;;;10.20;99.90;;;;;;5028983;28;20059;-74
2024/02/03 09:05:00;;;;;;;13.82;5.22;;;10.20;99.90;;;;;;5028734;28;20032;-74
2024/02/03 09:07:27;;;;;;;14.30;4.78;;;10.30;99.90;;;;;;5019407;28;20058;-74
2024/02/03 09:09:53;;;;;;;14.30;5.07;;;10.20;99.90;;;;;;5011409;28;20041;-75
2024/02/03 09:12:19;;;;;;;13.93;5.82;;;10.30;99.90;;;;;;5044730;28;20102;-74
2024/02/03 09:14:45;;;;;;;13.48;5.00;;;10.30;99.90;;;;;;5022204;28;20037;-74
2024/02/03 09:17:11;;;;;;;17.92;5.65;;;10.30;99.90;;;;;;5029257;28;20067;-74
2024/02/03 09:19:36;;;;;;;11.40;4.40;;;10.30;99.90;;;;;;5007037;28;20049;-74
2024/02/03 09:22:02;;;;;;;13.48;5.13;;;10.30;99.90;;;;;;5027119;28;20087;-74
2024/02/03 09:24:28;;;;;;;14.63;4.82;;;10.30;99.90;;;;;;5012371;28;20092;-73
2024/02/03 09:26:54;;;;;;;15.25;5.10;;;10.30;99.90;;;;;;5011981;28;20392;-74
2024/02/03 09:29:19;;;;;;;14.70;4.95;;;10.30;99.90;;;;;;5029096;28;20052;-74
2024/02/03 09:31:45;;;;;;;12.10;5.07;;;10.40;99.90;;;;;;5027424;28;20053;-74
2024/02/03 09:34:11;;;;;;;12.60;4.38;;;10.40;99.90;;;;;;5024502;28;20059;-74
2024/02/03 09:36:43;;;;;;;13.57;5.07;;;10.40;99.90;;;;;;5029526;28;20499;-74
2024/02/03 09:39:09;;;;;;;13.45;5.45;;;10.40;99.90;;;;;;5025562;28;20044;-74
2024/02/03 09:41:35;;;;;;;12.57;5.38;;;10.50;99.90;;;;;;5011834;28;20098;-74
2024/02/03 09:44:03;;;;;;;12.65;4.68;;;10.50;99.90;;;;;;5010071;28;20044;-74
2024/02/03 09:46:28;;;;;;;12.48;4.70;;;10.50;99.90;;;;;;5026459;28;20037;-73
2024/02/03 09:48:56;;;;;;;10.82;4.50;;;10.50;99.90;;;;;;5029979;28;20067;-74
2024/02/03 09:51:24;;;;;;;12.30;5.00;;;10.60;99.90;;;;;;5027632;28;20059;-74
2024/02/03 09:53:50;;;;;;;10.85;4.75;;;10.60;99.90;;;;;;5012360;28;20041;-76
2024/02/03 09:56:16;;;;;;;12.35;5.05;;;10.60;99.90;;;;;;5029168;28;20202;-74
2024/02/03 09:58:43;;;;;;;13.43;4.28;;;10.60;99.90;;;;;;5012024;28;20131;-74
2024/02/03 10:01:09;;;;;;;10.77;4.82;;;10.70;99.90;;;;;;5012859;28;20498;-74
2024/02/03 10:03:34;;;;;;;9.50;4.65;;;10.70;99.90;;;;;;5024202;28;20045;-74
2024/02/03 10:06:02;;;;;;;13.20;5.00;;;10.80;99.90;;;;;;5007175;28;20320;-74
2024/02/03 10:08:29;;;;;;;14.13;5.47;;;10.80;99.90;;;;;;5006894;28;20113;-74
2024/02/03 10:10:55;;;;;;;13.45;4.60;;;10.80;99.90;;;;;;5027678;28;20126;-74
2024/02/03 10:13:23;;;;;;;11.43;4.55;;;10.90;99.90;;;;;;5006805;28;20582;-74
2024/02/03 10:16:03;;;;;;;15.63;4.85;;;10.90;99.90;;;;;;5010225;28;20476;-74
2024/02/03 10:18:33;;;;;;;14.25;4.85;;;10.90;99.90;;;;;;5012558;28;20326;-74
2024/02/03 10:21:03;;;;;;;11.15;4.30;;;10.90;99.90;;;;;;5029714;28;20048;-74
2024/02/03 10:23:29;;;;;;;13.15;4.00;;;10.90;99.90;;;;;;5024961;28;20076;-74
2024/02/03 10:26:01;;;;;;;12.68;4.40;;;11.00;99.90;;;;;;5019884;28;20525;-73
2024/02/03 10:28:27;;;;;;;12.25;4.28;;;11.00;99.90;;;;;;5030797;28;20048;-73
2024/02/03 10:30:55;;;;;;;10.65;4.38;;;11.00;99.90;;;;;;5025167;28;20049;-73
2024/02/03 10:33:21;;;;;;;11.57;4.15;;;11.00;99.90;;;;;;5019667;28;20049;-73
2024/02/03 10:35:48;;;;;;;10.43;4.13;;;11.10;99.90;;;;;;5037797;28;20546;-74
2024/02/03 10:38:14;;;;;;;14.73;4.30;;;11.10;99.90;;;;;;5015788;28;20379;-74
2024/02/03 10:40:43;;;;;;;12.57;4.40;;;11.00;99.90;;;;;;5033024;28;20044;-74
2024/02/03 10:43:22;;;;;;;14.40;4.38;;;11.10;99.90;;;;;;5016285;28;20044;-73
2024/02/03 10:45:53;;;;;;;12.00;4.22;;;11.10;99.90;;;;;;5030096;28;20518;-74
2024/02/03 10:48:20;;;;;;;10.07;3.83;;;11.10;99.90;;;;;;5014673;28;20049;-74
2024/02/03 10:50:51;;;;;;;16.48;4.72;;;11.20;99.90;;;;;;5032424;28;20096;-74
2024/02/03 10:53:27;;;;;;;12.32;4.63;;;11.30;99.90;;;;;;5027231;28;20057;-74
2024/02/03 10:55:57;;;;;;;11.07;3.80;;;11.30;99.90;;;;;;5012938;28;20585;-74
2024/02/03 10:58:25;;;;;;;11.00;3.80;;;11.30;99.90;;;;;;5030687;28;20037;-74
2024/02/03 11:00:56;;;;;;;14.68;3.90;;;11.30;99.90;;;;;;5032280;28;20063;-74
2024/02/03 11:03:23;;;;;;;11.98;3.78;;;11.30;99.90;;;;;;5020918;28;20052;-74
2024/02/03 11:05:55;;;;;;;11.07;3.75;;;11.30;99.90;;;;;;5032233;28;20071;-74
2024/02/03 11:08:21;;;;;;;10.00;3.90;;;11.30;99.90;;;;;;5030473;28;20045;-74
2024/02/03 11:10:51;;;;;;;15.52;4.22;;;11.30;99.90;;;;;;5014358;28;20073;-74
2024/02/03 11:13:20;;;;;;;10.93;4.10;;;11.30;99.90;;;;;;5028742;28;20059;-74
2024/02/03 11:15:46;;;;;;;12.83;3.87;;;11.40;99.90;;;;;;5013549;28;20052;-75
2024/02/03 11:18:13;;;;;;;9.85;3.60;;;11.40;99.90;;;;;;5013776;28;20654;-74
2024/02/03 11:20:39;;;;;;;12.55;4.65;;;11.40;99.90;;;;;;5015720;28;20033;-74
2024/02/03 11:23:13;;;;;;;10.30;4.07;;;11.40;99.90;;;;;;5013865;28;20049;-74
2024/02/03 11:25:51;;;;;;;11.02;3.85;;;11.40;99.90;;;;;;5027518;28;20041;-74
2024/02/03 11:28:17;;;;;;;11.85;3.95;;;11.50;99.90;;;;;;5027711;28;20170;-75
2024/02/03 11:30:43;;;;;;;9.38;3.78;;;11.50;99.90;;;;;;5013785;28;20052;-75
2024/02/03 11:33:09;;;;;;;12.50;4.10;;;11.50;99.90;;;;;;5030974;28;20049;-74
2024/02/03 11:35:35;;;;;;;13.20;3.42;;;11.60;99.90;;;;;;5031105;28;20155;-74
2024/02/03 11:38:08;;;;;;;10.95;3.85;;;11.60;99.90;;;;;;5031339;28;20079;-74
2024/02/03 11:40:43;;;;;;;11.80;3.47;;;11.60;99.90;;;;;;5009069;28;20041;-74
2024/02/03 11:43:12;;;;;;;12.43;3.83;;;11.70;99.90;;;;;;5027733;28;20060;-74
2024/02/03 11:45:43;;;;;;;9.98;3.58;;;11.70;99.90;;;;;;5013982;28;20042;-75
2024/02/03 11:48:09;;;;;;;12.57;3.90;;;11.80;99.90;;;;;;5030619;28;20071;-74
2024/02/03 11:50:35;;;;;;;13.88;3.80;;;11.80;99.90;;;;;;5032096;28;20044;-75
2024/02/03 11:53:00;;;;;;;11.63;3.58;;;11.80;99.90;;;;;;5014636;28;20406;-74
2024/02/03 11:55:26;;;;;;;10.70;3.85;;;11.80;99.90;;;;;;5018469;28;20037;-75
2024/02/03 11:57:52;;;;;;;12.18;3.58;;;11.80;99.90;;;;;;5012546;28;20453;-75
2024/02/03 12:00:20;;;;;;;8.88;3.40;;;11.80;99.90;;;;;;5027012;28;20148;-74
2024/02/03 12:02:46;;;;;;;10.60;3.83;;;11.80;99.90;;;;;;5030169;28;20053;-74
2024/02/03 12:20:36;;;;;;;7.38;2.97;;;12.10;99.90;;;;;;4972234;23;20428;-76
2024/02/03 12:23:06;;;;;;;8.95;3.17;;;12.00;99.90;;;;;;5026163;28;20043;-76
2024/02/03 12:25:35;;;;;;;7.95;3.25;;;12.00;99.90;;;;;;5004911;28;20181;-77
2024/02/03 12:28:04;;;;;;;9.65;3.10;;;12.00;99.90;;;;;;5004137;28;20567;-77
2024/02/03 12:30:35;;;;;;;8.63;3.35;;;12.00;99.90;;;;;;5010362;28;20051;-77
2024/02/03 12:33:06;;;;;;;10.98;3.70;;;12.00;99.90;;;;;;5002461;28;20047;-76
2024/02/03 12:35:32;;;;;;;9.82;3.67;;;12.00;99.90;;;;;;5011551;28;20039;-78
2024/02/03 12:37:58;;;;;;;9.45;3.05;;;12.00;99.90;;;;;;5012095;28;20043;-78
2024/02/03 12:40:24;;;;;;;7.75;2.63;;;12.00;99.90;;;;;;5013730;28;20046;-78
2024/02/03 12:42:50;;;;;;;8.40;3.03;;;12.00;99.90;;;;;;5032409;28;20043;-77
2024/02/03 12:45:16;;;;;;;9.48;3.20;;;12.10;99.90;;;;;;5020080;28;20496;-77
2024/02/03 12:47:42;;;;;;;10.32;3.25;;;12.10;99.90;;;;;;5021367;28;20459;-77
2024/02/03 12:50:09;;;;;;;9.75;3.03;;;12.10;99.90;;;;;;5018629;28;20046;-77
2024/02/03 12:52:35;;;;;;;8.55;2.90;;;12.10;99.90;;;;;;5021232;28;20084;-76
2024/02/03 12:55:02;;;;;;;9.90;3.58;;;12.10;99.90;;;;;;4980329;28;20173;-77